createdAt,value
2018-07-22T00:00:37.520Z,24.13
2018-07-22T00:03:41.293Z,22.97
2018-07-22T00:06:45.036Z,25.17
2018-07-22T00:09:48.618Z,22.10
2018-07-22T00:12:52.248Z,17.37
2018-07-22T00:15:56.123Z,22.90
2018-07-22T00:18:59.713Z,23.50
2018-07-22T00:22:03.412Z,22.13
2018-07-22T00:25:07.676Z,20.63
2018-07-22T00:28:11.223Z,18.27
2018-07-22T00:31:14.952Z,16.03
2018-07-22T00:34:18.608Z,18.47
2018-07-22T00:37:22.282Z,18.40
2018-07-22T00:40:26.088Z,15.83
2018-07-22T00:43:29.911Z,19.00
2018-07-22T00:46:33.589Z,16.00
2018-07-22T00:49:37.303Z,16.03
2018-07-22T00:52:41.174Z,17.37
2018-07-22T00:55:44.707Z,17.90
2018-07-22T00:58:48.732Z,16.17
2018-07-22T01:01:52.313Z,13.47
2018-07-22T01:04:55.922Z,13.37
2018-07-22T01:07:59.482Z,15.20
2018-07-22T01:11:03.271Z,19.93
2018-07-22T01:14:07.122Z,12.97
2018-07-22T01:17:10.833Z,13.97
2018-07-22T01:20:14.422Z,17.97
2018-07-22T01:23:18.247Z,16.30
2018-07-22T01:26:21.807Z,16.73
2018-07-22T01:29:25.441Z,17.10
2018-07-22T01:32:29.096Z,19.17
2018-07-22T01:35:32.732Z,18.93
2018-07-22T01:38:36.460Z,17.30
2018-07-22T01:41:40.373Z,16.90
2018-07-22T01:44:44.054Z,16.73
2018-07-22T01:47:47.683Z,18.93
2018-07-22T01:50:51.257Z,18.70
2018-07-22T01:53:54.875Z,20.47
2018-07-22T01:56:58.502Z,27.53
2018-07-22T02:00:02.084Z,21.67
2018-07-22T02:03:05.999Z,18.73
2018-07-22T02:06:09.666Z,23.07
2018-07-22T02:09:13.338Z,27.67
2018-07-22T02:12:17.254Z,24.13
2018-07-22T02:15:21.112Z,23.30
2018-07-22T02:18:24.763Z,21.27
2018-07-22T02:21:29.483Z,21.37
2018-07-22T02:24:33.106Z,31.70
2018-07-22T02:27:36.678Z,22.33
2018-07-22T02:30:40.320Z,25.87
2018-07-22T02:33:50.549Z,24.07
2018-07-22T02:36:54.202Z,26.20
2018-07-22T02:39:57.872Z,27.40
2018-07-22T02:43:01.711Z,27.00
2018-07-22T02:46:05.418Z,23.10
2018-07-22T02:49:09.069Z,23.87
2018-07-22T02:52:12.717Z,22.70
2018-07-22T02:55:16.304Z,29.93
2018-07-22T02:58:20.002Z,24.10
2018-07-22T03:01:23.663Z,25.40
2018-07-22T03:04:27.219Z,23.03
2018-07-22T03:07:30.883Z,21.33
2018-07-22T03:10:34.615Z,23.73
2018-07-22T03:13:38.193Z,24.80
2018-07-22T03:16:41.877Z,25.17
2018-07-22T03:19:45.474Z,27.23
2018-07-22T03:22:49.099Z,25.77
2018-07-22T03:25:52.834Z,27.83
2018-07-22T03:28:56.489Z,25.13
2018-07-22T03:32:00.163Z,27.90
2018-07-22T03:35:03.804Z,33.63
2018-07-22T03:38:07.393Z,29.57
2018-07-22T03:41:11.013Z,25.73
2018-07-22T03:44:14.659Z,29.00
2018-07-22T03:47:18.303Z,26.77
2018-07-22T03:50:22.000Z,31.37
2018-07-22T03:53:25.618Z,30.27
2018-07-22T03:56:29.282Z,33.83
2018-07-22T03:59:32.830Z,32.00
2018-07-22T04:02:36.704Z,27.57
2018-07-22T04:05:40.381Z,30.63
2018-07-22T04:08:43.939Z,30.13
2018-07-22T04:11:47.496Z,26.33
2018-07-22T04:14:51.241Z,29.30
2018-07-22T04:17:54.828Z,29.40
2018-07-22T04:20:58.489Z,30.17
2018-07-22T04:24:02.230Z,26.73
2018-07-22T04:27:05.760Z,38.00
2018-07-22T04:30:09.326Z,30.30
2018-07-22T04:33:12.965Z,32.30
2018-07-22T04:36:16.546Z,32.70
2018-07-22T04:39:20.135Z,31.30
2018-07-22T04:42:23.806Z,32.50
2018-07-22T04:45:27.616Z,32.40
2018-07-22T04:48:31.384Z,31.53
2018-07-22T04:51:35.043Z,33.87
2018-07-22T04:54:38.729Z,30.50
2018-07-22T04:57:42.375Z,35.37
2018-07-22T05:00:45.926Z,35.30
2018-07-22T05:03:49.754Z,34.17
2018-07-22T05:06:53.423Z,35.30
2018-07-22T05:09:57.138Z,36.17
2018-07-22T05:13:00.776Z,34.43
2018-07-22T05:16:04.372Z,34.20
2018-07-22T05:19:08.294Z,34.77
2018-07-22T05:22:11.939Z,36.13
2018-07-22T05:25:15.624Z,33.53
2018-07-22T05:28:19.179Z,37.33
2018-07-22T05:31:22.939Z,37.50
2018-07-22T05:34:26.692Z,35.90
2018-07-22T05:37:30.385Z,35.70
2018-07-22T05:40:34.006Z,39.97
2018-07-22T05:43:37.799Z,38.00
2018-07-22T05:46:41.359Z,38.67
2018-07-22T05:49:44.979Z,37.47
2018-07-22T05:52:48.594Z,38.67
2018-07-22T05:55:52.151Z,38.57
2018-07-22T05:58:55.692Z,37.20
2018-07-22T06:01:59.397Z,42.30
2018-07-22T06:05:02.961Z,37.10
2018-07-22T06:08:06.990Z,41.73
2018-07-22T06:11:10.590Z,42.93
2018-07-22T06:14:14.279Z,46.97
2018-07-22T06:17:17.819Z,39.23
2018-07-22T06:20:21.408Z,42.40
2018-07-22T06:23:25.191Z,40.80
2018-07-22T06:26:28.985Z,39.33
2018-07-22T06:29:32.721Z,37.90
2018-07-22T06:32:36.312Z,44.13
2018-07-22T06:35:39.841Z,41.40
2018-07-22T06:38:43.531Z,41.10
2018-07-22T06:41:47.170Z,41.53
2018-07-22T06:44:50.957Z,39.37
2018-07-22T06:47:54.515Z,43.40
2018-07-22T06:50:58.117Z,41.30
2018-07-22T06:54:01.707Z,39.27
2018-07-22T06:57:05.386Z,38.60
2018-07-22T07:00:09.036Z,38.20
2018-07-22T07:03:12.682Z,42.57
2018-07-22T07:06:16.268Z,42.33
2018-07-22T07:09:19.923Z,39.97
2018-07-22T07:12:23.541Z,42.70
2018-07-22T07:15:27.152Z,35.77
2018-07-22T07:18:30.816Z,37.83
2018-07-22T07:21:34.475Z,45.47
2018-07-22T07:24:38.233Z,41.63
2018-07-22T07:27:41.863Z,37.43
2018-07-22T07:30:45.574Z,38.60
2018-07-22T07:33:49.188Z,42.47
2018-07-22T07:36:52.800Z,43.37
2018-07-22T07:39:56.556Z,38.67
2018-07-22T07:43:00.148Z,39.30
2018-07-22T07:46:03.908Z,36.57
2018-07-22T07:49:07.621Z,38.60
2018-07-22T07:52:11.259Z,36.93
2018-07-22T07:55:14.873Z,36.37
2018-07-22T07:58:18.547Z,36.67
2018-07-22T08:01:22.097Z,35.40
2018-07-22T08:04:25.826Z,36.53
2018-07-22T08:07:29.488Z,31.80
2018-07-22T08:10:33.146Z,33.37
2018-07-22T08:13:36.906Z,37.63
2018-07-22T08:16:40.573Z,45.20
2018-07-22T08:19:44.205Z,37.60
2018-07-22T08:22:47.811Z,32.20
2018-07-22T08:25:51.548Z,31.27
2018-07-22T08:29:34.297Z,33.17
2018-07-22T08:32:38.937Z,35.57
2018-07-22T08:35:42.666Z,37.50
2018-07-22T08:38:46.746Z,37.83
2018-07-22T08:41:51.176Z,42.27
2018-07-22T08:44:54.848Z,43.77
2018-07-22T08:47:58.492Z,39.37
2018-07-22T08:51:02.087Z,37.50
2018-07-22T08:54:05.921Z,35.93
2018-07-22T08:57:09.814Z,40.83
2018-07-22T09:00:13.538Z,33.47
2018-07-22T09:03:17.164Z,34.80
2018-07-22T09:06:20.879Z,37.13
2018-07-22T09:09:24.601Z,35.03
2018-07-22T09:12:28.237Z,34.33
2018-07-22T09:15:31.889Z,32.67
2018-07-22T09:18:35.705Z,32.40
2018-07-22T09:21:39.375Z,27.20
2018-07-22T09:24:43.139Z,35.33
2018-07-22T09:27:46.724Z,33.10
2018-07-22T09:30:50.464Z,27.97
2018-07-22T09:33:54.099Z,29.43
2018-07-22T09:36:57.842Z,23.10
2018-07-22T09:40:01.547Z,23.27
2018-07-22T09:43:05.152Z,26.57
2018-07-22T09:46:08.806Z,23.73
2018-07-22T09:49:12.412Z,28.67
2018-07-22T09:52:16.066Z,22.23
2018-07-22T09:55:19.753Z,24.17
2018-07-22T09:58:23.381Z,21.47
2018-07-22T10:01:26.995Z,23.57
2018-07-22T10:04:30.725Z,21.83
2018-07-22T10:07:34.303Z,18.10
2018-07-22T10:10:38.088Z,22.03
2018-07-22T10:13:41.658Z,18.53
2018-07-22T10:16:45.379Z,18.77
2018-07-22T10:19:49.005Z,18.70
2018-07-22T10:22:52.662Z,17.30
2018-07-22T10:25:56.423Z,23.93
2018-07-22T10:29:02.016Z,16.70
2018-07-22T10:32:05.947Z,17.63
2018-07-22T10:35:10.445Z,17.17
2018-07-22T10:38:17.830Z,17.83
2018-07-22T10:41:23.647Z,16.23
2018-07-22T10:44:27.295Z,17.90
2018-07-22T10:47:30.969Z,15.93
2018-07-22T10:50:35.310Z,14.57
2018-07-22T10:53:39.055Z,16.23
2018-07-22T10:56:42.833Z,17.60
2018-07-22T10:59:46.597Z,13.70
2018-07-22T11:02:50.328Z,15.43
2018-07-22T11:05:54.076Z,12.90
2018-07-22T11:08:57.744Z,15.33
2018-07-22T11:12:01.389Z,16.00
2018-07-22T11:15:06.280Z,15.57
2018-07-22T11:18:10.077Z,13.20
2018-07-22T11:21:13.786Z,11.43
2018-07-22T11:24:17.836Z,11.83
2018-07-22T11:27:21.573Z,11.63
2018-07-22T11:30:25.198Z,12.20
2018-07-22T11:33:28.896Z,12.63
2018-07-22T11:36:32.461Z,10.37
2018-07-22T11:39:36.081Z,11.93
2018-07-22T11:42:39.728Z,10.80
2018-07-22T11:45:43.350Z,11.77
2018-07-22T11:48:46.920Z,11.03
2018-07-22T11:51:50.547Z,9.33
2018-07-22T11:54:54.238Z,9.47
2018-07-22T11:57:57.866Z,11.67
2018-07-22T12:01:01.505Z,12.67
2018-07-22T12:04:05.258Z,9.80
2018-07-22T12:07:08.845Z,11.23
2018-07-22T12:10:12.425Z,10.43
2018-07-22T12:13:16.066Z,9.13
2018-07-22T12:16:19.749Z,8.77
2018-07-22T12:19:23.434Z,10.00
2018-07-22T12:22:27.150Z,12.30
2018-07-22T12:25:37.503Z,12.80
2018-07-22T12:28:43.178Z,12.30
2018-07-22T12:31:47.708Z,9.40
2018-07-22T12:35:13.854Z,11.77
2018-07-22T12:38:17.728Z,9.60
2018-07-22T12:41:21.367Z,10.70
2018-07-22T12:44:25.081Z,11.30
2018-07-22T12:47:29.767Z,15.27
2018-07-22T12:50:34.233Z,9.57
2018-07-22T12:53:37.703Z,9.47
2018-07-22T12:56:41.369Z,9.90
2018-07-22T12:59:45.000Z,11.13
2018-07-22T13:02:48.713Z,9.50
2018-07-22T13:05:52.355Z,10.53
2018-07-22T13:08:56.045Z,9.70
2018-07-22T13:11:59.766Z,8.90
2018-07-22T13:15:03.596Z,9.07
2018-07-22T13:18:07.299Z,8.40
2018-07-22T13:21:11.112Z,9.93
2018-07-22T13:24:14.926Z,8.80
2018-07-22T13:27:18.603Z,9.33
2018-07-22T13:30:22.375Z,9.53
2018-07-22T13:33:26.002Z,8.07
2018-07-22T13:36:29.652Z,8.43
2018-07-22T13:39:33.256Z,8.47
2018-07-22T13:42:36.985Z,10.70
2018-07-22T13:45:40.582Z,8.23
2018-07-22T13:48:44.231Z,10.10
2018-07-22T13:51:47.831Z,8.80
2018-07-22T13:54:51.499Z,9.23
2018-07-22T13:57:55.337Z,8.80
2018-07-22T14:00:58.901Z,7.53
2018-07-22T14:04:02.677Z,7.33
2018-07-22T14:07:06.507Z,8.93
2018-07-22T14:10:10.136Z,7.97
2018-07-22T14:13:13.836Z,10.43
2018-07-22T14:16:17.510Z,6.80
2018-07-22T14:19:21.252Z,7.37
2018-07-22T14:22:24.996Z,6.83
2018-07-22T14:25:28.836Z,7.23
2018-07-22T14:28:32.490Z,6.93
2018-07-22T14:31:36.261Z,6.47
2018-07-22T14:34:39.911Z,10.17
2018-07-22T14:37:43.619Z,8.93
2018-07-22T14:40:47.341Z,9.00
2018-07-22T14:43:51.055Z,7.00
2018-07-22T14:46:54.801Z,7.13
2018-07-22T14:50:01.285Z,7.10
2018-07-22T14:53:04.971Z,7.10
2018-07-22T14:56:08.625Z,6.87
2018-07-22T14:59:12.363Z,7.63
2018-07-22T15:02:16.044Z,12.40
2018-07-22T15:05:19.947Z,6.87
2018-07-22T15:08:23.735Z,6.47
2018-07-22T15:11:27.298Z,6.33
2018-07-22T15:14:31.075Z,9.97
2018-07-22T15:17:34.676Z,6.30
2018-07-22T15:20:38.312Z,8.53
2018-07-22T15:23:42.140Z,6.10
2018-07-22T15:26:45.813Z,7.43
2018-07-22T15:29:49.507Z,6.73
2018-07-22T15:32:53.293Z,6.30
2018-07-22T15:35:56.894Z,7.73
2018-07-22T15:39:00.712Z,6.90
2018-07-22T15:42:04.353Z,6.17
2018-07-22T15:45:07.995Z,7.00
2018-07-22T15:48:11.842Z,8.43
2018-07-22T15:51:15.415Z,6.00
2018-07-22T15:54:19.111Z,7.30
2018-07-22T15:57:22.801Z,7.13
2018-07-22T16:00:26.432Z,6.73
2018-07-22T16:03:30.062Z,6.57
2018-07-22T16:06:33.732Z,7.60
2018-07-22T16:09:37.557Z,6.00
2018-07-22T16:12:41.190Z,6.43
2018-07-22T16:15:44.924Z,5.90
2018-07-22T16:18:48.610Z,7.60
2018-07-22T16:21:59.641Z,6.23
2018-07-22T16:25:04.690Z,6.73
2018-07-22T16:28:08.443Z,6.30
2018-07-22T16:31:12.100Z,7.20
2018-07-22T16:34:16.581Z,6.20
2018-07-22T16:37:20.279Z,6.47
2018-07-22T16:40:24.056Z,5.90
2018-07-22T16:43:27.764Z,6.17
2018-07-22T16:46:31.324Z,5.93
2018-07-22T16:49:34.924Z,6.10
2018-07-22T16:52:38.523Z,5.87
2018-07-22T16:55:42.189Z,5.43
2018-07-22T16:58:45.885Z,5.47
2018-07-22T17:01:49.636Z,5.63
2018-07-22T17:04:53.365Z,5.47
2018-07-22T17:07:57.101Z,5.70
2018-07-22T17:11:00.759Z,6.73
2018-07-22T17:14:04.484Z,6.20
2018-07-22T17:17:08.185Z,5.63
2018-07-22T17:20:11.847Z,4.90
2018-07-22T17:23:15.721Z,4.93
2018-07-22T17:26:19.473Z,5.43
2018-07-22T17:29:23.214Z,5.70
2018-07-22T17:32:26.841Z,6.10
2018-07-22T17:35:30.672Z,6.07
2018-07-22T17:38:34.435Z,5.10
2018-07-22T17:41:38.786Z,5.10
2018-07-22T17:44:42.508Z,5.57
2018-07-22T17:47:46.185Z,5.00
2018-07-22T17:50:49.825Z,5.53
2018-07-22T17:53:53.707Z,5.40
2018-07-22T17:56:57.428Z,5.57
2018-07-22T18:00:01.138Z,5.27
2018-07-22T18:03:26.608Z,6.90
2018-07-22T18:06:30.334Z,6.87
2018-07-22T18:09:34.102Z,5.00
2018-07-22T18:12:37.768Z,6.63
2018-07-22T18:15:41.391Z,5.37
2018-07-22T18:18:45.272Z,8.63
2018-07-22T18:21:48.814Z,4.83
2018-07-22T18:24:52.714Z,4.60
2018-07-22T18:27:56.365Z,5.10
2018-07-22T18:31:00.154Z,7.43
2018-07-22T18:34:03.826Z,5.30
2018-07-22T18:37:07.832Z,5.40
2018-07-22T18:40:11.437Z,5.00
2018-07-22T18:43:15.338Z,5.53
2018-07-22T18:46:19.028Z,7.97
2018-07-22T18:49:22.915Z,4.97
2018-07-22T18:52:27.072Z,8.20
2018-07-22T18:55:30.964Z,8.50
2018-07-22T18:58:35.120Z,5.50
2018-07-22T19:01:39.117Z,7.13
2018-07-22T19:04:42.841Z,7.07
2018-07-22T19:07:46.918Z,5.93
2018-07-22T19:10:50.994Z,5.80
2018-07-22T19:13:55.060Z,5.70
2018-07-22T19:16:59.139Z,5.50
2018-07-22T19:20:03.093Z,6.83
2018-07-22T19:23:07.098Z,6.07
2018-07-22T19:26:11.173Z,6.00
2018-07-22T19:29:15.185Z,5.27
2018-07-22T19:32:19.173Z,5.93
2018-07-22T19:35:23.137Z,8.23
2018-07-22T19:38:27.112Z,5.50
2018-07-22T19:41:31.095Z,5.73
2018-07-22T19:44:35.272Z,9.00
2018-07-22T19:47:39.349Z,9.70
2018-07-22T19:50:43.306Z,5.53
2018-07-22T19:53:47.238Z,5.87
2018-07-22T19:56:51.306Z,6.30
2018-07-22T19:59:55.344Z,11.43
2018-07-22T20:02:59.266Z,7.93
2018-07-22T20:06:03.341Z,7.33
2018-07-22T20:09:08.615Z,6.80
2018-07-22T20:12:12.595Z,5.93
2018-07-22T20:15:16.525Z,15.23
2018-07-22T20:18:20.558Z,6.40
2018-07-22T20:21:24.625Z,6.63
2018-07-22T20:24:28.844Z,7.00
2018-07-22T20:27:32.464Z,9.43
2018-07-22T20:30:36.346Z,8.40
2018-07-22T20:33:40.374Z,7.30
2018-07-22T20:36:44.121Z,19.73
2018-07-22T20:39:48.213Z,8.80
2018-07-22T20:42:51.946Z,7.00
2018-07-22T20:45:55.574Z,6.43
2018-07-22T20:48:59.392Z,7.47
2018-07-22T20:52:03.284Z,9.50
2018-07-22T20:55:07.026Z,7.73
2018-07-22T20:58:10.966Z,7.00
2018-07-22T21:01:14.675Z,6.93
2018-07-22T21:04:18.390Z,7.57
2018-07-22T21:07:22.055Z,6.40
2018-07-22T21:10:25.726Z,6.63
2018-07-22T21:13:29.354Z,7.60
2018-07-22T21:16:33.090Z,6.90
2018-07-22T21:19:36.771Z,6.40
2018-07-22T21:22:40.508Z,8.33
2018-07-22T21:25:44.247Z,8.20
2018-07-22T21:28:47.950Z,7.23
2018-07-22T21:31:51.676Z,8.27
2018-07-22T21:34:55.315Z,8.20
2018-07-22T21:37:59.096Z,6.53
2018-07-22T21:41:02.866Z,7.60
2018-07-22T21:44:06.532Z,8.57
2018-07-22T21:47:10.676Z,6.97
2018-07-22T21:50:14.223Z,6.47
2018-07-22T21:53:17.913Z,7.60
2018-07-22T21:56:21.514Z,7.80
2018-07-22T21:59:25.117Z,7.30
2018-07-22T22:02:32.815Z,6.93
2018-07-22T22:05:36.493Z,8.50
2018-07-22T22:08:40.085Z,8.67
2018-07-22T22:11:43.968Z,6.83
2018-07-22T22:14:47.652Z,6.83
2018-07-22T22:17:51.527Z,9.73
2018-07-22T22:20:55.342Z,6.60
2018-07-22T22:23:59.266Z,7.97
2018-07-22T22:27:02.911Z,6.97
2018-07-22T22:30:06.562Z,7.13
2018-07-22T22:33:10.206Z,6.70
2018-07-22T22:36:13.857Z,6.60
2018-07-22T22:39:17.575Z,6.67
2018-07-22T22:42:21.155Z,6.97
2018-07-22T22:45:24.860Z,7.23
2018-07-22T22:48:28.436Z,6.97
2018-07-22T22:51:32.189Z,7.10
2018-07-22T22:54:35.816Z,7.00
2018-07-22T22:57:39.896Z,8.60
2018-07-22T23:00:43.520Z,7.77
2018-07-22T23:03:47.291Z,7.20
2018-07-22T23:06:50.887Z,7.33
2018-07-22T23:09:54.454Z,6.90
2018-07-22T23:12:58.256Z,6.30
2018-07-22T23:16:01.835Z,6.77
2018-07-22T23:19:05.736Z,6.53
2018-07-22T23:22:09.422Z,8.13
2018-07-22T23:25:13.231Z,7.07
2018-07-22T23:28:16.821Z,6.73
2018-07-22T23:31:20.382Z,6.67
2018-07-22T23:34:23.926Z,6.40
2018-07-22T23:37:27.492Z,6.10
2018-07-22T23:40:31.146Z,6.47
2018-07-22T23:43:34.755Z,6.30
2018-07-22T23:46:38.410Z,6.90
2018-07-22T23:49:41.957Z,8.33
2018-07-22T23:52:45.770Z,6.70
2018-07-22T23:55:49.450Z,7.50
2018-07-22T23:58:53.030Z,9.63
